sensor_id;sensor_type;location;lat;lon;timestamp;P1;durP1;ratioP1;P2;durP2;ratioP2
54464;SDS011;40374;49.480;20.016;2022-10-16T00:01:43;126.55;;;67.00;;
54464;SDS011;40374;49.480;20.016;2022-10-16T00:04:10;116.97;;;63.67;;
54464;SDS011;40374;49.480;20.016;2022-10-16T00:06:38;111.43;;;61.95;;
54464;SDS011;40374;49.480;20.016;2022-10-16T00:09:06;121.20;;;63.47;;
54464;SDS011;40374;49.480;20.016;2022-10-16T00:11:35;112.03;;;60.60;;
54464;SDS011;40374;49.480;20.016;2022-10-16T00:14:05;117.82;;;61.78;;
54464;SDS011;40374;49.480;20.016;2022-10-16T00:16:35;101.00;;;53.78;;
54464;SDS011;40374;49.480;20.016;2022-10-16T00:19:02;94.88;;;52.70;;
54464;SDS011;40374;49.480;20.016;2022-10-16T00:21:31;87.25;;;46.17;;
54464;SDS011;40374;49.480;20.016;2022-10-16T00:24:03;93.90;;;49.70;;
54464;SDS011;40374;49.480;20.016;2022-10-16T00:26:33;86.10;;;48.50;;
54464;SDS011;40374;49.480;20.016;2022-10-16T00:29:02;90.63;;;50.28;;
54464;SDS011;40374;49.480;20.016;2022-10-16T00:31:30;94.32;;;46.60;;
54464;SDS011;40374;49.480;20.016;2022-10-16T00:33:58;87.22;;;48.70;;
54464;SDS011;40374;49.480;20.016;2022-10-16T00:36:25;93.95;;;49.38;;
54464;SDS011;40374;49.480;20.016;2022-10-16T00:38:54;93.95;;;49.55;;
54464;SDS011;40374;49.480;20.016;2022-10-16T00:41:23;91.68;;;51.92;;
54464;SDS011;40374;49.480;20.016;2022-10-16T00:43:55;91.85;;;51.05;;
54464;SDS011;40374;49.480;20.016;2022-10-16T00:46:26;86.25;;;49.53;;
54464;SDS011;40374;49.480;20.016;2022-10-16T00:49:02;96.78;;;51.90;;
54464;SDS011;40374;49.480;20.016;2022-10-16T00:51:40;92.80;;;51.28;;
54464;SDS011;40374;49.480;20.016;2022-10-16T00:54:14;100.53;;;52.58;;
54464;SDS011;40374;49.480;20.016;2022-10-16T00:56:45;100.32;;;52.92;;
54464;SDS011;40374;49.480;20.016;2022-10-16T00:59:18;97.38;;;53.35;;
54464;SDS011;40374;49.480;20.016;2022-10-16T01:01:48;109.50;;;58.70;;
54464;SDS011;40374;49.480;20.016;2022-10-16T01:04:15;112.28;;;55.72;;
54464;SDS011;40374;49.480;20.016;2022-10-16T01:06:46;96.13;;;50.15;;
54464;SDS011;40374;49.480;20.016;2022-10-16T01:09:23;91.20;;;48.13;;
54464;SDS011;40374;49.480;20.016;2022-10-16T01:12:15;94.28;;;48.72;;
54464;SDS011;40374;49.480;20.016;2022-10-16T01:14:53;90.10;;;48.35;;
54464;SDS011;40374;49.480;20.016;2022-10-16T01:17:28;84.85;;;43.47;;
54464;SDS011;40374;49.480;20.016;2022-10-16T01:25:59;88.53;;;48.80;;
54464;SDS011;40374;49.480;20.016;2022-10-16T01:28:29;85.30;;;44.58;;
54464;SDS011;40374;49.480;20.016;2022-10-16T01:31:03;81.32;;;42.25;;
54464;SDS011;40374;49.480;20.016;2022-10-16T01:33:39;77.20;;;43.20;;
54464;SDS011;40374;49.480;20.016;2022-10-16T01:36:25;82.20;;;42.03;;
54464;SDS011;40374;49.480;20.016;2022-10-16T01:38:57;79.63;;;39.97;;
54464;SDS011;40374;49.480;20.016;2022-10-16T01:41:30;83.70;;;41.30;;
54464;SDS011;40374;49.480;20.016;2022-10-16T01:46:32;67.38;;;34.72;;
54464;SDS011;40374;49.480;20.016;2022-10-16T01:49:02;79.07;;;37.20;;
54464;SDS011;40374;49.480;20.016;2022-10-16T01:51:30;82.10;;;40.08;;
54464;SDS011;40374;49.480;20.016;2022-10-16T01:54:00;76.75;;;40.72;;
54464;SDS011;40374;49.480;20.016;2022-10-16T01:56:29;81.95;;;42.05;;
54464;SDS011;40374;49.480;20.016;2022-10-16T02:01:29;63.92;;;31.95;;
54464;SDS011;40374;49.480;20.016;2022-10-16T02:04:02;67.65;;;31.50;;
54464;SDS011;40374;49.480;20.016;2022-10-16T02:06:36;51.45;;;27.88;;
54464;SDS011;40374;49.480;20.016;2022-10-16T02:09:04;55.92;;;28.50;;
54464;SDS011;40374;49.480;20.016;2022-10-16T02:11:31;46.67;;;25.08;;
54464;SDS011;40374;49.480;20.016;2022-10-16T02:14:01;50.45;;;26.75;;
54464;SDS011;40374;49.480;20.016;2022-10-16T02:16:39;43.05;;;26.77;;
54464;SDS011;40374;49.480;20.016;2022-10-16T02:19:14;50.17;;;24.83;;
54464;SDS011;40374;49.480;20.016;2022-10-16T02:27:19;45.15;;;24.95;;
54464;SDS011;40374;49.480;20.016;2022-10-16T02:29:53;43.85;;;23.52;;
54464;SDS011;40374;49.480;20.016;2022-10-16T02:32:27;44.38;;;25.45;;
54464;SDS011;40374;49.480;20.016;2022-10-16T02:34:58;45.20;;;26.30;;
54464;SDS011;40374;49.480;20.016;2022-10-16T02:37:27;45.42;;;25.95;;
54464;SDS011;40374;49.480;20.016;2022-10-16T02:39:56;43.53;;;24.85;;
54464;SDS011;40374;49.480;20.016;2022-10-16T02:42:42;49.55;;;26.67;;
54464;SDS011;40374;49.480;20.016;2022-10-16T02:45:10;45.88;;;24.75;;
54464;SDS011;40374;49.480;20.016;2022-10-16T02:47:38;45.97;;;24.38;;
54464;SDS011;40374;49.480;20.016;2022-10-16T02:50:05;44.55;;;23.65;;
54464;SDS011;40374;49.480;20.016;2022-10-16T02:52:33;43.35;;;22.88;;
54464;SDS011;40374;49.480;20.016;2022-10-16T02:55:00;37.95;;;22.48;;
54464;SDS011;40374;49.480;20.016;2022-10-16T02:57:28;37.05;;;21.83;;
54464;SDS011;40374;49.480;20.016;2022-10-16T02:59:55;47.33;;;23.15;;
54464;SDS011;40374;49.480;20.016;2022-10-16T03:02:23;47.58;;;23.95;;
54464;SDS011;40374;49.480;20.016;2022-10-16T03:04:50;47.17;;;23.80;;
54464;SDS011;40374;49.480;20.016;2022-10-16T03:07:17;45.40;;;24.02;;
54464;SDS011;40374;49.480;20.016;2022-10-16T03:09:45;49.10;;;26.08;;
54464;SDS011;40374;49.480;20.016;2022-10-16T03:12:12;44.10;;;24.75;;
54464;SDS011;40374;49.480;20.016;2022-10-16T03:14:40;43.10;;;24.70;;
54464;SDS011;40374;49.480;20.016;2022-10-16T03:17:07;47.08;;;24.13;;
54464;SDS011;40374;49.480;20.016;2022-10-16T03:19:34;40.33;;;23.48;;
54464;SDS011;40374;49.480;20.016;2022-10-16T03:22:02;41.45;;;23.02;;
54464;SDS011;40374;49.480;20.016;2022-10-16T03:24:30;36.25;;;22.60;;
54464;SDS011;40374;49.480;20.016;2022-10-16T03:26:57;41.78;;;22.20;;
54464;SDS011;40374;49.480;20.016;2022-10-16T03:29:25;43.90;;;23.70;;
54464;SDS011;40374;49.480;20.016;2022-10-16T03:31:53;43.22;;;23.30;;
54464;SDS011;40374;49.480;20.016;2022-10-16T03:34:20;38.28;;;23.20;;
54464;SDS011;40374;49.480;20.016;2022-10-16T03:36:48;39.58;;;22.58;;
54464;SDS011;40374;49.480;20.016;2022-10-16T03:39:16;40.55;;;24.35;;
54464;SDS011;40374;49.480;20.016;2022-10-16T03:41:43;48.75;;;26.88;;
54464;SDS011;40374;49.480;20.016;2022-10-16T03:44:10;50.95;;;30.10;;
54464;SDS011;40374;49.480;20.016;2022-10-16T03:46:38;54.13;;;31.45;;
54464;SDS011;40374;49.480;20.016;2022-10-16T03:49:05;65.55;;;34.10;;
54464;SDS011;40374;49.480;20.016;2022-10-16T03:51:35;63.13;;;32.80;;
54464;SDS011;40374;49.480;20.016;2022-10-16T03:54:03;70.03;;;32.85;;
54464;SDS011;40374;49.480;20.016;2022-10-16T03:56:30;56.97;;;30.42;;
54464;SDS011;40374;49.480;20.016;2022-10-16T03:58:58;61.03;;;29.48;;
54464;SDS011;40374;49.480;20.016;2022-10-16T04:01:25;61.88;;;31.92;;
54464;SDS011;40374;49.480;20.016;2022-10-16T04:03:53;66.07;;;36.00;;
54464;SDS011;40374;49.480;20.016;2022-10-16T04:06:20;60.92;;;34.53;;
54464;SDS011;40374;49.480;20.016;2022-10-16T04:08:48;70.95;;;37.53;;
54464;SDS011;40374;49.480;20.016;2022-10-16T04:11:15;75.32;;;41.03;;
54464;SDS011;40374;49.480;20.016;2022-10-16T04:13:42;85.70;;;42.00;;
54464;SDS011;40374;49.480;20.016;2022-10-16T04:16:10;77.75;;;41.55;;
54464;SDS011;40374;49.480;20.016;2022-10-16T04:18:38;81.57;;;43.83;;
54464;SDS011;40374;49.480;20.016;2022-10-16T04:21:05;95.00;;;49.75;;
54464;SDS011;40374;49.480;20.016;2022-10-16T04:23:33;97.47;;;48.75;;
54464;SDS011;40374;49.480;20.016;2022-10-16T04:26:01;99.75;;;55.30;;
54464;SDS011;40374;49.480;20.016;2022-10-16T04:28:29;96.90;;;50.83;;
54464;SDS011;40374;49.480;20.016;2022-10-16T04:31:03;88.97;;;48.22;;
54464;SDS011;40374;49.480;20.016;2022-10-16T04:33:31;83.97;;;46.72;;
54464;SDS011;40374;49.480;20.016;2022-10-16T04:35:59;80.13;;;44.28;;
54464;SDS011;40374;49.480;20.016;2022-10-16T04:38:28;85.32;;;45.22;;
54464;SDS011;40374;49.480;20.016;2022-10-16T04:40:56;89.10;;;46.00;;
54464;SDS011;40374;49.480;20.016;2022-10-16T04:43:24;77.18;;;43.85;;
54464;SDS011;40374;49.480;20.016;2022-10-16T04:45:51;73.47;;;39.75;;
54464;SDS011;40374;49.480;20.016;2022-10-16T04:48:19;82.10;;;41.75;;
54464;SDS011;40374;49.480;20.016;2022-10-16T04:50:47;83.05;;;44.00;;
54464;SDS011;40374;49.480;20.016;2022-10-16T04:53:21;79.85;;;43.00;;
54464;SDS011;40374;49.480;20.016;2022-10-16T04:55:49;79.78;;;42.88;;
54464;SDS011;40374;49.480;20.016;2022-10-16T04:58:16;83.03;;;45.25;;
54464;SDS011;40374;49.480;20.016;2022-10-16T05:00:44;75.45;;;38.88;;
54464;SDS011;40374;49.480;20.016;2022-10-16T05:03:13;81.18;;;40.78;;
54464;SDS011;40374;49.480;20.016;2022-10-16T05:05:44;85.47;;;40.05;;
54464;SDS011;40374;49.480;20.016;2022-10-16T05:08:13;82.88;;;39.05;;
54464;SDS011;40374;49.480;20.016;2022-10-16T05:10:42;81.20;;;43.13;;
54464;SDS011;40374;49.480;20.016;2022-10-16T05:13:10;72.72;;;40.05;;
54464;SDS011;40374;49.480;20.016;2022-10-16T05:15:38;86.60;;;43.88;;
54464;SDS011;40374;49.480;20.016;2022-10-16T05:18:06;78.50;;;42.78;;
54464;SDS011;40374;49.480;20.016;2022-10-16T05:20:34;86.22;;;47.22;;
54464;SDS011;40374;49.480;20.016;2022-10-16T05:23:01;90.80;;;47.58;;
54464;SDS011;40374;49.480;20.016;2022-10-16T05:25:29;84.40;;;44.22;;
54464;SDS011;40374;49.480;20.016;2022-10-16T05:27:56;85.63;;;47.08;;
54464;SDS011;40374;49.480;20.016;2022-10-16T05:30:23;82.88;;;46.92;;
54464;SDS011;40374;49.480;20.016;2022-10-16T05:32:51;93.47;;;50.22;;
54464;SDS011;40374;49.480;20.016;2022-10-16T05:35:18;93.65;;;49.45;;
54464;SDS011;40374;49.480;20.016;2022-10-16T05:37:47;100.25;;;52.60;;
54464;SDS011;40374;49.480;20.016;2022-10-16T05:40:15;105.13;;;55.95;;
54464;SDS011;40374;49.480;20.016;2022-10-16T05:42:43;100.63;;;54.22;;
54464;SDS011;40374;49.480;20.016;2022-10-16T05:45:11;103.32;;;55.65;;
54464;SDS011;40374;49.480;20.016;2022-10-16T05:47:39;105.32;;;55.20;;
54464;SDS011;40374;49.480;20.016;2022-10-16T05:50:06;106.30;;;58.47;;
54464;SDS011;40374;49.480;20.016;2022-10-16T05:52:34;121.10;;;63.65;;
54464;SDS011;40374;49.480;20.016;2022-10-16T05:55:01;114.20;;;62.92;;
54464;SDS011;40374;49.480;20.016;2022-10-16T05:57:29;113.53;;;59.45;;
54464;SDS011;40374;49.480;20.016;2022-10-16T05:59:57;104.55;;;60.10;;
54464;SDS011;40374;49.480;20.016;2022-10-16T06:02:24;90.22;;;50.55;;
54464;SDS011;40374;49.480;20.016;2022-10-16T06:04:52;92.25;;;50.33;;
54464;SDS011;40374;49.480;20.016;2022-10-16T06:07:22;87.95;;;50.88;;
54464;SDS011;40374;49.480;20.016;2022-10-16T06:09:50;88.18;;;47.88;;
54464;SDS011;40374;49.480;20.016;2022-10-16T06:12:18;85.40;;;48.67;;
54464;SDS011;40374;49.480;20.016;2022-10-16T06:14:46;97.85;;;51.53;;
54464;SDS011;40374;49.480;20.016;2022-10-16T06:17:14;92.25;;;51.05;;
54464;SDS011;40374;49.480;20.016;2022-10-16T06:19:42;102.75;;;55.53;;
54464;SDS011;40374;49.480;20.016;2022-10-16T06:22:09;96.85;;;56.95;;
54464;SDS011;40374;49.480;20.016;2022-10-16T06:24:36;105.15;;;56.85;;
54464;SDS011;40374;49.480;20.016;2022-10-16T06:27:04;90.68;;;52.25;;
54464;SDS011;40374;49.480;20.016;2022-10-16T06:29:32;94.18;;;49.30;;
54464;SDS011;40374;49.480;20.016;2022-10-16T06:31:59;65.53;;;38.75;;
54464;SDS011;40374;49.480;20.016;2022-10-16T06:34:26;62.13;;;38.95;;
54464;SDS011;40374;49.480;20.016;2022-10-16T06:36:54;72.43;;;40.05;;
54464;SDS011;40374;49.480;20.016;2022-10-16T06:39:22;53.47;;;31.95;;
54464;SDS011;40374;49.480;20.016;2022-10-16T06:41:49;54.75;;;32.40;;
54464;SDS011;40374;49.480;20.016;2022-10-16T06:44:17;55.30;;;31.35;;
54464;SDS011;40374;49.480;20.016;2022-10-16T06:46:44;57.97;;;33.65;;
54464;SDS011;40374;49.480;20.016;2022-10-16T06:49:11;53.40;;;31.85;;
54464;SDS011;40374;49.480;20.016;2022-10-16T06:51:39;41.72;;;24.98;;
54464;SDS011;40374;49.480;20.016;2022-10-16T06:54:09;46.85;;;25.20;;
54464;SDS011;40374;49.480;20.016;2022-10-16T06:56:37;37.20;;;22.27;;
54464;SDS011;40374;49.480;20.016;2022-10-16T06:59:04;33.97;;;21.35;;
54464;SDS011;40374;49.480;20.016;2022-10-16T07:01:32;32.20;;;21.00;;
54464;SDS011;40374;49.480;20.016;2022-10-16T07:04:00;33.25;;;20.48;;
54464;SDS011;40374;49.480;20.016;2022-10-16T07:06:30;31.67;;;19.75;;
54464;SDS011;40374;49.480;20.016;2022-10-16T07:09:01;38.75;;;22.00;;
54464;SDS011;40374;49.480;20.016;2022-10-16T07:11:30;32.47;;;20.35;;
54464;SDS011;40374;49.480;20.016;2022-10-16T07:13:58;31.63;;;19.52;;
54464;SDS011;40374;49.480;20.016;2022-10-16T07:16:27;35.83;;;20.45;;
54464;SDS011;40374;49.480;20.016;2022-10-16T07:18:56;33.92;;;19.95;;
54464;SDS011;40374;49.480;20.016;2022-10-16T07:21:28;37.25;;;20.88;;
54464;SDS011;40374;49.480;20.016;2022-10-16T07:23:58;34.92;;;20.42;;
54464;SDS011;40374;49.480;20.016;2022-10-16T07:26:29;47.63;;;23.85;;
54464;SDS011;40374;49.480;20.016;2022-10-16T07:28:58;32.70;;;17.20;;
54464;SDS011;40374;49.480;20.016;2022-10-16T07:31:25;38.35;;;22.35;;
54464;SDS011;40374;49.480;20.016;2022-10-16T07:33:54;42.60;;;20.98;;
54464;SDS011;40374;49.480;20.016;2022-10-16T07:36:22;30.30;;;18.15;;
54464;SDS011;40374;49.480;20.016;2022-10-16T07:38:49;25.58;;;14.25;;
54464;SDS011;40374;49.480;20.016;2022-10-16T07:41:21;28.20;;;14.43;;
54464;SDS011;40374;49.480;20.016;2022-10-16T07:43:49;29.55;;;13.55;;
54464;SDS011;40374;49.480;20.016;2022-10-16T07:46:18;23.05;;;13.00;;
54464;SDS011;40374;49.480;20.016;2022-10-16T07:48:47;20.00;;;12.48;;
54464;SDS011;40374;49.480;20.016;2022-10-16T07:51:17;23.58;;;12.48;;
54464;SDS011;40374;49.480;20.016;2022-10-16T07:53:45;37.63;;;17.77;;
54464;SDS011;40374;49.480;20.016;2022-10-16T07:56:14;21.92;;;12.18;;
54464;SDS011;40374;49.480;20.016;2022-10-16T07:58:42;23.95;;;11.55;;
54464;SDS011;40374;49.480;20.016;2022-10-16T08:01:14;27.42;;;11.57;;
54464;SDS011;40374;49.480;20.016;2022-10-16T08:03:43;15.85;;;10.18;;
54464;SDS011;40374;49.480;20.016;2022-10-16T08:06:12;16.98;;;9.60;;
54464;SDS011;40374;49.480;20.016;2022-10-16T08:08:40;12.65;;;8.45;;
54464;SDS011;40374;49.480;20.016;2022-10-16T08:11:08;15.30;;;9.23;;
54464;SDS011;40374;49.480;20.016;2022-10-16T08:13:36;17.50;;;10.40;;
54464;SDS011;40374;49.480;20.016;2022-10-16T08:16:04;13.80;;;9.35;;
54464;SDS011;40374;49.480;20.016;2022-10-16T08:18:39;14.40;;;9.50;;
54464;SDS011;40374;49.480;20.016;2022-10-16T08:21:12;22.08;;;9.88;;
54464;SDS011;40374;49.480;20.016;2022-10-16T08:23:47;19.63;;;9.63;;
54464;SDS011;40374;49.480;20.016;2022-10-16T08:26:23;12.73;;;8.20;;
54464;SDS011;40374;49.480;20.016;2022-10-16T08:28:51;14.43;;;9.07;;
54464;SDS011;40374;49.480;20.016;2022-10-16T08:31:19;14.10;;;7.95;;
54464;SDS011;40374;49.480;20.016;2022-10-16T08:33:47;16.33;;;9.98;;
54464;SDS011;40374;49.480;20.016;2022-10-16T08:36:15;16.65;;;8.50;;
54464;SDS011;40374;49.480;20.016;2022-10-16T08:38:43;13.43;;;8.32;;
54464;SDS011;40374;49.480;20.016;2022-10-16T08:43:55;19.70;;;10.80;;
54464;SDS011;40374;49.480;20.016;2022-10-16T08:46:50;18.40;;;11.90;;
54464;SDS011;40374;49.480;20.016;2022-10-16T08:49:43;19.52;;;9.13;;
54464;SDS011;40374;49.480;20.016;2022-10-16T08:52:24;17.85;;;9.40;;
54464;SDS011;40374;49.480;20.016;2022-10-16T08:54:55;16.55;;;8.50;;
54464;SDS011;40374;49.480;20.016;2022-10-16T08:57:24;16.55;;;10.13;;
54464;SDS011;40374;49.480;20.016;2022-10-16T08:59:53;15.75;;;7.82;;
54464;SDS011;40374;49.480;20.016;2022-10-16T09:02:30;16.73;;;6.95;;
54464;SDS011;40374;49.480;20.016;2022-10-16T09:05:09;12.80;;;7.70;;
54464;SDS011;40374;49.480;20.016;2022-10-16T09:10:43;10.73;;;6.53;;
54464;SDS011;40374;49.480;20.016;2022-10-16T09:13:26;11.27;;;6.97;;
54464;SDS011;40374;49.480;20.016;2022-10-16T09:18:54;8.95;;;6.55;;
54464;SDS011;40374;49.480;20.016;2022-10-16T09:21:31;11.35;;;6.90;;
54464;SDS011;40374;49.480;20.016;2022-10-16T09:24:13;20.70;;;11.38;;
54464;SDS011;40374;49.480;20.016;2022-10-16T09:26:42;22.17;;;11.35;;
54464;SDS011;40374;49.480;20.016;2022-10-16T09:29:14;15.25;;;10.63;;
54464;SDS011;40374;49.480;20.016;2022-10-16T09:31:43;8.68;;;5.30;;
54464;SDS011;40374;49.480;20.016;2022-10-16T09:34:32;9.50;;;6.70;;
54464;SDS011;40374;49.480;20.016;2022-10-16T09:37:03;14.38;;;6.57;;
54464;SDS011;40374;49.480;20.016;2022-10-16T09:39:48;8.35;;;6.00;;
54464;SDS011;40374;49.480;20.016;2022-10-16T09:42:24;9.93;;;5.10;;
54464;SDS011;40374;49.480;20.016;2022-10-16T09:44:57;8.32;;;5.78;;
54464;SDS011;40374;49.480;20.016;2022-10-16T09:47:26;9.32;;;5.78;;
54464;SDS011;40374;49.480;20.016;2022-10-16T09:49:57;6.78;;;5.53;;
54464;SDS011;40374;49.480;20.016;2022-10-16T09:52:29;6.90;;;5.13;;
54464;SDS011;40374;49.480;20.016;2022-10-16T09:54:58;10.02;;;4.88;;
54464;SDS011;40374;49.480;20.016;2022-10-16T09:57:28;9.18;;;5.43;;
54464;SDS011;40374;49.480;20.016;2022-10-16T09:59:58;10.98;;;6.10;;
54464;SDS011;40374;49.480;20.016;2022-10-16T10:02:35;10.50;;;5.30;;
54464;SDS011;40374;49.480;20.016;2022-10-16T10:08:06;11.80;;;5.53;;
54464;SDS011;40374;49.480;20.016;2022-10-16T10:11:01;9.48;;;5.60;;
54464;SDS011;40374;49.480;20.016;2022-10-16T10:13:29;10.38;;;6.35;;
54464;SDS011;40374;49.480;20.016;2022-10-16T10:15:56;8.65;;;5.80;;
54464;SDS011;40374;49.480;20.016;2022-10-16T10:18:24;5.65;;;5.05;;
54464;SDS011;40374;49.480;20.016;2022-10-16T10:20:59;7.93;;;5.50;;
54464;SDS011;40374;49.480;20.016;2022-10-16T10:23:33;11.57;;;6.25;;
54464;SDS011;40374;49.480;20.016;2022-10-16T10:26:18;8.52;;;6.53;;
54464;SDS011;40374;49.480;20.016;2022-10-16T10:31:36;8.55;;;5.60;;
54464;SDS011;40374;49.480;20.016;2022-10-16T10:37:08;10.93;;;6.22;;
54464;SDS011;40374;49.480;20.016;2022-10-16T10:40:02;10.80;;;4.95;;
54464;SDS011;40374;49.480;20.016;2022-10-16T10:42:42;7.90;;;5.20;;
54464;SDS011;40374;49.480;20.016;2022-10-16T10:45:44;9.45;;;6.03;;
54464;SDS011;40374;49.480;20.016;2022-10-16T10:51:51;9.13;;;5.28;;
54464;SDS011;40374;49.480;20.016;2022-10-16T10:59:48;8.55;;;6.03;;
54464;SDS011;40374;49.480;20.016;2022-10-16T11:05:42;8.45;;;5.68;;
54464;SDS011;40374;49.480;20.016;2022-10-16T11:08:19;9.60;;;5.80;;
54464;SDS011;40374;49.480;20.016;2022-10-16T11:10:54;10.27;;;5.88;;
54464;SDS011;40374;49.480;20.016;2022-10-16T11:16:17;9.38;;;5.80;;
54464;SDS011;40374;49.480;20.016;2022-10-16T11:19:01;9.85;;;6.38;;
54464;SDS011;40374;49.480;20.016;2022-10-16T11:21:31;10.55;;;6.20;;
54464;SDS011;40374;49.480;20.016;2022-10-16T11:24:10;8.18;;;5.68;;
54464;SDS011;40374;49.480;20.016;2022-10-16T11:26:46;10.43;;;5.47;;
54464;SDS011;40374;49.480;20.016;2022-10-16T11:29:18;11.98;;;6.10;;
54464;SDS011;40374;49.480;20.016;2022-10-16T11:31:52;10.13;;;6.80;;
54464;SDS011;40374;49.480;20.016;2022-10-16T11:34:44;16.70;;;10.60;;
54464;SDS011;40374;49.480;20.016;2022-10-16T11:37:19;15.85;;;11.40;;
54464;SDS011;40374;49.480;20.016;2022-10-16T11:39:52;20.10;;;9.25;;
54464;SDS011;40374;49.480;20.016;2022-10-16T11:42:38;16.15;;;6.40;;
54464;SDS011;40374;49.480;20.016;2022-10-16T11:47:57;9.70;;;6.05;;
54464;SDS011;40374;49.480;20.016;2022-10-16T11:53:31;9.40;;;5.80;;
54464;SDS011;40374;49.480;20.016;2022-10-16T11:56:13;6.88;;;5.20;;
54464;SDS011;40374;49.480;20.016;2022-10-16T12:01:34;14.60;;;5.78;;
54464;SDS011;40374;49.480;20.016;2022-10-16T12:06:44;11.75;;;6.32;;
54464;SDS011;40374;49.480;20.016;2022-10-16T12:09:30;11.27;;;6.22;;
54464;SDS011;40374;49.480;20.016;2022-10-16T12:11:59;9.30;;;5.68;;
54464;SDS011;40374;49.480;20.016;2022-10-16T12:14:39;11.10;;;6.13;;
54464;SDS011;40374;49.480;20.016;2022-10-16T12:17:34;8.43;;;5.95;;
54464;SDS011;40374;49.480;20.016;2022-10-16T12:25:25;8.90;;;5.75;;
54464;SDS011;40374;49.480;20.016;2022-10-16T12:27:56;7.20;;;5.72;;
54464;SDS011;40374;49.480;20.016;2022-10-16T12:30:51;8.38;;;5.68;;
54464;SDS011;40374;49.480;20.016;2022-10-16T12:33:25;8.73;;;5.60;;
54464;SDS011;40374;49.480;20.016;2022-10-16T12:35:53;8.85;;;5.95;;
54464;SDS011;40374;49.480;20.016;2022-10-16T12:38:26;14.07;;;6.57;;
54464;SDS011;40374;49.480;20.016;2022-10-16T12:41:00;11.57;;;6.35;;
54464;SDS011;40374;49.480;20.016;2022-10-16T12:43:40;7.57;;;5.18;;
54464;SDS011;40374;49.480;20.016;2022-10-16T12:48:38;15.60;;;5.38;;
54464;SDS011;40374;49.480;20.016;2022-10-16T12:54:10;6.72;;;4.90;;
54464;SDS011;40374;49.480;20.016;2022-10-16T12:56:48;9.70;;;5.10;;
54464;SDS011;40374;49.480;20.016;2022-10-16T13:02:20;11.93;;;5.85;;
54464;SDS011;40374;49.480;20.016;2022-10-16T13:21:28;10.10;;;6.43;;
54464;SDS011;40374;49.480;20.016;2022-10-16T13:24:12;11.25;;;8.15;;
54464;SDS011;40374;49.480;20.016;2022-10-16T13:27:01;11.52;;;5.75;;
54464;SDS011;40374;49.480;20.016;2022-10-16T13:29:34;16.70;;;6.43;;
54464;SDS011;40374;49.480;20.016;2022-10-16T13:32:06;13.40;;;6.68;;
54464;SDS011;40374;49.480;20.016;2022-10-16T13:34:46;16.38;;;7.13;;
54464;SDS011;40374;49.480;20.016;2022-10-16T13:37:19;7.72;;;5.97;;
54464;SDS011;40374;49.480;20.016;2022-10-16T13:40:02;13.60;;;6.30;;
54464;SDS011;40374;49.480;20.016;2022-10-16T13:42:44;8.90;;;6.13;;
54464;SDS011;40374;49.480;20.016;2022-10-16T13:45:19;9.95;;;6.03;;
54464;SDS011;40374;49.480;20.016;2022-10-16T13:47:48;10.27;;;5.95;;
54464;SDS011;40374;49.480;20.016;2022-10-16T13:50:17;9.73;;;5.93;;
54464;SDS011;40374;49.480;20.016;2022-10-16T13:52:45;10.45;;;6.43;;
54464;SDS011;40374;49.480;20.016;2022-10-16T13:55:14;8.75;;;5.80;;
54464;SDS011;40374;49.480;20.016;2022-10-16T13:57:44;10.45;;;6.15;;
54464;SDS011;40374;49.480;20.016;2022-10-16T14:00:19;12.55;;;6.03;;
54464;SDS011;40374;49.480;20.016;2022-10-16T14:02:58;13.15;;;6.50;;
54464;SDS011;40374;49.480;20.016;2022-10-16T14:08:01;13.00;;;6.55;;
54464;SDS011;40374;49.480;20.016;2022-10-16T14:10:29;8.90;;;6.43;;
54464;SDS011;40374;49.480;20.016;2022-10-16T14:13:03;11.32;;;5.82;;
54464;SDS011;40374;49.480;20.016;2022-10-16T14:15:34;15.77;;;6.35;;
54464;SDS011;40374;49.480;20.016;2022-10-16T14:18:03;7.78;;;6.47;;
54464;SDS011;40374;49.480;20.016;2022-10-16T14:20:32;11.35;;;6.20;;
54464;SDS011;40374;49.480;20.016;2022-10-16T14:23:03;14.10;;;6.43;;
54464;SDS011;40374;49.480;20.016;2022-10-16T14:25:32;10.48;;;6.93;;
54464;SDS011;40374;49.480;20.016;2022-10-16T14:28:18;10.73;;;6.90;;
54464;SDS011;40374;49.480;20.016;2022-10-16T14:30:49;10.50;;;5.90;;
54464;SDS011;40374;49.480;20.016;2022-10-16T14:36:05;7.88;;;5.95;;
54464;SDS011;40374;49.480;20.016;2022-10-16T14:38:38;12.52;;;6.47;;
54464;SDS011;40374;49.480;20.016;2022-10-16T14:41:07;11.20;;;6.82;;
54464;SDS011;40374;49.480;20.016;2022-10-16T14:43:37;12.60;;;5.97;;
54464;SDS011;40374;49.480;20.016;2022-10-16T14:46:17;8.40;;;6.32;;
54464;SDS011;40374;49.480;20.016;2022-10-16T14:48:47;18.75;;;6.68;;
54464;SDS011;40374;49.480;20.016;2022-10-16T14:51:18;10.25;;;6.30;;
54464;SDS011;40374;49.480;20.016;2022-10-16T14:53:47;14.63;;;6.70;;
54464;SDS011;40374;49.480;20.016;2022-10-16T14:56:18;11.52;;;6.00;;
54464;SDS011;40374;49.480;20.016;2022-10-16T14:58:49;14.38;;;6.40;;
54464;SDS011;40374;49.480;20.016;2022-10-16T15:01:18;11.02;;;6.63;;
54464;SDS011;40374;49.480;20.016;2022-10-16T15:03:47;11.00;;;6.93;;
54464;SDS011;40374;49.480;20.016;2022-10-16T15:06:16;10.70;;;6.65;;
54464;SDS011;40374;49.480;20.016;2022-10-16T15:08:44;10.73;;;6.20;;
54464;SDS011;40374;49.480;20.016;2022-10-16T15:11:15;10.63;;;6.65;;
54464;SDS011;40374;49.480;20.016;2022-10-16T15:13:45;13.85;;;6.97;;
54464;SDS011;40374;49.480;20.016;2022-10-16T15:16:14;13.60;;;8.18;;
54464;SDS011;40374;49.480;20.016;2022-10-16T15:18:43;10.57;;;7.43;;
54464;SDS011;40374;49.480;20.016;2022-10-16T15:21:22;12.63;;;6.93;;
54464;SDS011;40374;49.480;20.016;2022-10-16T15:23:53;13.63;;;7.75;;
54464;SDS011;40374;49.480;20.016;2022-10-16T15:26:23;9.65;;;7.03;;
54464;SDS011;40374;49.480;20.016;2022-10-16T15:28:52;22.17;;;11.73;;
54464;SDS011;40374;49.480;20.016;2022-10-16T15:31:20;36.90;;;20.35;;
54464;SDS011;40374;49.480;20.016;2022-10-16T15:33:52;22.80;;;12.90;;
54464;SDS011;40374;49.480;20.016;2022-10-16T15:36:26;18.27;;;9.48;;
54464;SDS011;40374;49.480;20.016;2022-10-16T15:39:01;34.17;;;19.55;;
54464;SDS011;40374;49.480;20.016;2022-10-16T15:41:28;20.05;;;12.55;;
54464;SDS011;40374;49.480;20.016;2022-10-16T15:43:57;15.60;;;8.70;;
54464;SDS011;40374;49.480;20.016;2022-10-16T15:46:24;16.05;;;8.45;;
54464;SDS011;40374;49.480;20.016;2022-10-16T15:48:55;13.55;;;9.32;;
54464;SDS011;40374;49.480;20.016;2022-10-16T15:51:25;15.68;;;10.15;;
54464;SDS011;40374;49.480;20.016;2022-10-16T15:53:56;13.63;;;10.02;;
54464;SDS011;40374;49.480;20.016;2022-10-16T15:56:24;14.48;;;7.57;;
54464;SDS011;40374;49.480;20.016;2022-10-16T15:58:53;13.23;;;8.38;;
54464;SDS011;40374;49.480;20.016;2022-10-16T16:01:21;11.48;;;8.07;;
54464;SDS011;40374;49.480;20.016;2022-10-16T16:03:52;21.95;;;8.48;;
54464;SDS011;40374;49.480;20.016;2022-10-16T16:06:20;12.45;;;7.55;;
54464;SDS011;40374;49.480;20.016;2022-10-16T16:08:50;13.02;;;8.60;;
54464;SDS011;40374;49.480;20.016;2022-10-16T16:11:19;13.85;;;9.35;;
54464;SDS011;40374;49.480;20.016;2022-10-16T16:13:47;16.20;;;10.80;;
54464;SDS011;40374;49.480;20.016;2022-10-16T16:16:15;18.58;;;10.05;;